createdAt,value
2019-02-17T00:02:14.433Z,85.80
2019-02-17T00:04:44.938Z,85.80
2019-02-17T00:07:14.464Z,85.70
2019-02-17T00:09:43.861Z,85.70
2019-02-17T00:12:13.431Z,85.70
2019-02-17T00:14:42.901Z,85.60
2019-02-17T00:17:12.298Z,85.70
2019-02-17T00:19:41.733Z,85.60
2019-02-17T00:22:11.144Z,85.60
2019-02-17T00:24:40.583Z,85.60
2019-02-17T00:27:10.150Z,85.70
2019-02-17T00:29:39.621Z,85.70
2019-02-17T00:32:09.088Z,85.60
2019-02-17T00:34:38.567Z,85.50
2019-02-17T00:37:07.972Z,85.50
2019-02-17T00:39:37.416Z,85.50
2019-02-17T00:42:06.845Z,85.50
2019-02-17T00:44:36.227Z,85.50
2019-02-17T00:47:05.697Z,85.50
2019-02-17T00:49:35.086Z,85.50
2019-02-17T00:52:04.561Z,85.60
2019-02-17T00:54:33.939Z,85.80
2019-02-17T00:57:03.441Z,85.80
2019-02-17T00:59:32.831Z,86.30
2019-02-17T01:02:02.244Z,85.60
2019-02-17T01:04:31.815Z,85.60
2019-02-17T01:07:01.235Z,85.50
2019-02-17T01:09:30.619Z,85.60
2019-02-17T01:12:00.111Z,85.50
2019-02-17T01:14:29.516Z,85.50
2019-02-17T01:16:58.981Z,85.50
2019-02-17T01:19:28.372Z,85.50
2019-02-17T01:21:57.940Z,85.50
2019-02-17T01:24:27.332Z,85.40
2019-02-17T01:26:56.742Z,85.40
2019-02-17T01:29:26.241Z,85.30
2019-02-17T01:31:55.692Z,85.20
2019-02-17T01:34:25.093Z,85.30
2019-02-17T01:36:54.511Z,85.30
2019-02-17T01:39:24.001Z,85.30
2019-02-17T01:41:53.565Z,85.40
2019-02-17T01:44:23.001Z,85.40
2019-02-17T01:46:52.416Z,85.30
2019-02-17T01:49:21.859Z,85.20
2019-02-17T01:51:51.401Z,85.20
2019-02-17T01:54:21.587Z,85.20
2019-02-17T01:56:51.057Z,85.20
2019-02-17T01:59:30.176Z,85.10
2019-02-17T02:01:51.479Z,85.10
2019-02-17T02:04:20.843Z,85.00
2019-02-17T02:06:50.266Z,85.10
2019-02-17T02:09:19.679Z,85.10
2019-02-17T02:11:49.073Z,85.00
2019-02-17T02:14:18.510Z,85.00
2019-02-17T02:16:47.894Z,85.10
2019-02-17T02:19:17.354Z,85.10
2019-02-17T02:21:47.638Z,85.00
2019-02-17T02:24:18.806Z,85.00
2019-02-17T02:26:48.506Z,85.10
2019-02-17T02:29:18.199Z,85.10
2019-02-17T02:31:47.591Z,85.10
2019-02-17T02:34:16.976Z,84.90
2019-02-17T02:36:46.657Z,85.10
2019-02-17T02:39:16.039Z,85.00
2019-02-17T02:41:45.434Z,85.10
2019-02-17T02:44:14.946Z,85.00
2019-02-17T02:46:44.412Z,85.00
2019-02-17T02:49:13.973Z,85.00
2019-02-17T02:51:43.405Z,85.00
2019-02-17T02:54:12.767Z,84.90
2019-02-17T02:56:42.223Z,85.00
2019-02-17T02:59:11.594Z,84.90
2019-02-17T03:01:41.024Z,84.90
2019-02-17T03:04:10.436Z,84.90
2019-02-17T03:06:41.532Z,85.00
2019-02-17T03:09:10.933Z,85.00
2019-02-17T03:11:40.395Z,85.00
2019-02-17T03:14:09.782Z,84.90
2019-02-17T03:16:39.291Z,84.90
2019-02-17T03:19:08.746Z,85.00
2019-02-17T03:21:38.280Z,85.00
2019-02-17T03:24:07.740Z,85.00
2019-02-17T03:26:37.207Z,85.00
2019-02-17T03:29:06.680Z,85.10
2019-02-17T03:31:36.145Z,85.10
2019-02-17T03:34:05.681Z,85.10
2019-02-17T03:36:35.064Z,85.10
2019-02-17T03:39:06.100Z,85.10
2019-02-17T03:41:39.321Z,85.20
2019-02-17T03:44:08.775Z,85.30
2019-02-17T03:46:38.145Z,85.30
2019-02-17T03:49:07.541Z,85.30
2019-02-17T03:54:17.705Z,85.30
2019-02-17T03:56:47.113Z,85.20
2019-02-17T03:59:16.533Z,85.30
2019-02-17T04:01:46.026Z,85.30
2019-02-17T04:04:15.883Z,85.30
2019-02-17T04:06:45.349Z,85.30
2019-02-17T04:09:14.819Z,85.40
2019-02-17T04:11:44.205Z,85.40
2019-02-17T04:14:13.706Z,85.30
2019-02-17T04:16:43.106Z,85.30
2019-02-17T04:19:12.506Z,85.40
2019-02-17T04:21:41.956Z,85.40
2019-02-17T04:24:11.351Z,85.40
2019-02-17T04:26:40.856Z,85.40
2019-02-17T04:29:10.425Z,85.40
2019-02-17T04:31:39.840Z,85.40
2019-02-17T04:34:09.305Z,85.30
2019-02-17T04:36:44.427Z,85.40
2019-02-17T04:42:06.952Z,85.30
2019-02-17T04:44:36.369Z,85.30
2019-02-17T04:47:25.539Z,85.30
2019-02-17T04:52:48.822Z,85.30
2019-02-17T04:55:18.380Z,85.40
2019-02-17T04:57:47.766Z,85.40
2019-02-17T05:00:17.323Z,85.40
2019-02-17T05:02:46.712Z,85.40
2019-02-17T05:05:28.467Z,85.40
2019-02-17T05:07:57.850Z,85.40
2019-02-17T05:10:27.327Z,85.30
2019-02-17T05:12:56.800Z,85.40
2019-02-17T05:15:26.267Z,85.40
2019-02-17T05:17:55.670Z,85.50
2019-02-17T05:20:25.238Z,85.50
2019-02-17T05:23:12.983Z,85.40
2019-02-17T05:25:42.504Z,85.50
2019-02-17T05:28:11.934Z,85.50
2019-02-17T05:30:52.351Z,85.60
2019-02-17T05:33:12.455Z,85.60
2019-02-17T05:35:41.892Z,85.60
2019-02-17T05:38:15.184Z,85.70
2019-02-17T05:40:44.608Z,85.70
2019-02-17T05:43:14.122Z,85.70
2019-02-17T05:45:43.572Z,85.70
2019-02-17T05:48:13.029Z,85.70
2019-02-17T05:50:42.483Z,85.70
2019-02-17T05:53:11.958Z,85.70
2019-02-17T05:55:41.434Z,85.80
2019-02-17T05:58:10.916Z,85.80
2019-02-17T06:00:40.526Z,85.70
2019-02-17T06:03:30.697Z,85.60
2019-02-17T06:06:00.221Z,85.70
2019-02-17T06:08:29.755Z,85.70
2019-02-17T06:10:59.197Z,85.70
2019-02-17T06:13:28.610Z,85.70
2019-02-17T06:15:57.980Z,85.60
2019-02-17T06:18:27.412Z,85.60
2019-02-17T06:20:56.850Z,85.60
2019-02-17T06:23:26.240Z,85.60
2019-02-17T06:25:55.720Z,85.60
2019-02-17T06:28:25.091Z,85.60
2019-02-17T06:30:54.546Z,85.60
2019-02-17T06:33:24.045Z,85.70
2019-02-17T06:35:58.856Z,85.70
2019-02-17T06:41:22.230Z,85.70
2019-02-17T06:43:51.604Z,85.70
2019-02-17T06:46:22.682Z,85.80
2019-02-17T06:48:52.200Z,85.80
2019-02-17T06:51:21.676Z,85.80
2019-02-17T06:53:51.167Z,85.80
2019-02-17T06:56:22.288Z,85.80
2019-02-17T07:04:27.615Z,85.80
2019-02-17T07:07:03.194Z,85.70
2019-02-17T07:09:38.053Z,85.80
2019-02-17T07:12:07.573Z,85.90
2019-02-17T07:14:38.414Z,85.90
2019-02-17T07:17:07.953Z,86.00
2019-02-17T07:19:37.436Z,86.10
2019-02-17T07:22:07.038Z,86.10
2019-02-17T07:24:36.590Z,86.20
2019-02-17T07:27:06.026Z,86.20
2019-02-17T07:29:35.512Z,86.20
2019-02-17T07:32:05.030Z,86.20
2019-02-17T07:34:34.533Z,86.40
2019-02-17T07:37:03.920Z,86.50
2019-02-17T07:39:33.344Z,86.50
2019-02-17T07:42:02.714Z,86.50
2019-02-17T07:44:32.232Z,86.70
2019-02-17T07:47:01.615Z,86.70
2019-02-17T07:49:31.098Z,86.80
2019-02-17T07:52:00.574Z,86.90
2019-02-17T07:54:30.080Z,86.90
2019-02-17T07:56:59.523Z,87.10
2019-02-17T07:59:29.094Z,87.10
2019-02-17T08:01:58.480Z,87.30
2019-02-17T08:04:28.061Z,87.40
2019-02-17T08:06:57.501Z,87.40
2019-02-17T08:09:26.904Z,87.60
2019-02-17T08:11:56.460Z,87.70
2019-02-17T08:14:25.945Z,87.70
2019-02-17T08:16:55.325Z,87.90
2019-02-17T08:19:24.737Z,88.10
2019-02-17T08:21:54.148Z,88.10
2019-02-17T08:24:23.642Z,88.30
2019-02-17T08:26:53.140Z,88.20
2019-02-17T08:29:22.531Z,88.30
2019-02-17T08:31:55.979Z,88.40
2019-02-17T08:34:23.203Z,88.60
2019-02-17T08:36:52.582Z,88.60
2019-02-17T08:39:22.065Z,88.80
2019-02-17T08:41:51.537Z,88.70
2019-02-17T08:44:20.946Z,88.80
2019-02-17T08:46:50.367Z,89.00
2019-02-17T08:49:19.893Z,89.10
2019-02-17T08:51:49.425Z,89.30
2019-02-17T08:54:18.808Z,89.40
2019-02-17T08:56:48.168Z,89.40
2019-02-17T08:59:17.604Z,89.60
2019-02-17T09:01:47.018Z,89.60
2019-02-17T09:04:16.492Z,89.80
2019-02-17T09:06:46.033Z,89.90
2019-02-17T09:09:15.544Z,90.00
2019-02-17T09:11:45.030Z,90.00
2019-02-17T09:14:14.558Z,90.10
2019-02-17T09:16:44.050Z,90.10
2019-02-17T09:19:13.493Z,90.20
2019-02-17T09:21:42.946Z,90.30
2019-02-17T09:24:12.392Z,90.40
2019-02-17T09:26:41.862Z,90.40
2019-02-17T09:29:11.330Z,90.50
2019-02-17T09:31:40.862Z,90.60
2019-02-17T09:34:10.319Z,90.70
2019-02-17T09:36:39.800Z,90.70
2019-02-17T09:39:09.538Z,90.80
2019-02-17T09:41:39.006Z,90.90
2019-02-17T09:44:08.550Z,91.00
2019-02-17T09:46:38.063Z,91.10
2019-02-17T09:49:07.486Z,91.20
2019-02-17T09:51:36.893Z,91.20
2019-02-17T09:54:06.409Z,91.30
2019-02-17T09:56:35.858Z,91.50
2019-02-17T09:59:05.247Z,91.50
2019-02-17T10:01:34.686Z,91.60
2019-02-17T10:04:04.090Z,91.70
2019-02-17T10:06:33.560Z,91.80
2019-02-17T10:09:04.722Z,91.90
2019-02-17T10:11:34.210Z,91.90
2019-02-17T10:14:03.764Z,92.00
2019-02-17T10:16:33.313Z,92.10
2019-02-17T10:19:02.669Z,92.10
2019-02-17T10:21:32.231Z,92.20
2019-02-17T10:24:01.717Z,92.20
2019-02-17T10:26:31.110Z,91.90
2019-02-17T10:29:00.571Z,91.90
2019-02-17T10:31:30.016Z,92.00
2019-02-17T10:33:59.406Z,92.00
2019-02-17T10:36:28.844Z,92.00
2019-02-17T10:38:58.573Z,92.10
2019-02-17T10:41:28.114Z,92.10
2019-02-17T10:43:57.498Z,92.00
2019-02-17T10:46:26.896Z,92.00
2019-02-17T10:48:56.286Z,92.00
2019-02-17T10:51:26.535Z,92.00
2019-02-17T10:53:56.012Z,92.10
2019-02-17T10:56:25.440Z,92.20
2019-02-17T10:58:54.974Z,92.20
2019-02-17T11:01:24.518Z,92.20
2019-02-17T11:03:59.998Z,92.10
2019-02-17T11:06:29.454Z,92.30
2019-02-17T11:08:58.865Z,92.30
2019-02-17T11:11:28.270Z,92.30
2019-02-17T11:13:57.755Z,92.20
2019-02-17T11:16:27.272Z,92.40
2019-02-17T11:18:56.788Z,92.20
2019-02-17T11:21:26.272Z,92.40
2019-02-17T11:23:55.745Z,92.50
2019-02-17T11:26:25.163Z,92.50
2019-02-17T11:28:54.562Z,92.50
2019-02-17T11:31:24.050Z,92.40
2019-02-17T11:33:53.706Z,92.40
2019-02-17T11:36:23.156Z,92.40
2019-02-17T11:38:52.573Z,92.20
2019-02-17T11:41:22.040Z,92.40
2019-02-17T11:43:51.535Z,92.40
2019-02-17T11:46:21.026Z,92.30
2019-02-17T11:48:50.412Z,92.40
2019-02-17T11:51:19.830Z,92.30
2019-02-17T11:53:49.396Z,92.30
2019-02-17T11:56:18.831Z,92.70
2019-02-17T11:58:48.213Z,92.30
2019-02-17T12:01:17.669Z,92.40
2019-02-17T12:03:47.269Z,92.40
2019-02-17T12:06:16.641Z,92.40
2019-02-17T12:08:49.177Z,92.40
2019-02-17T12:11:18.677Z,92.50
2019-02-17T12:13:48.064Z,92.50
2019-02-17T12:16:17.576Z,92.40
2019-02-17T12:18:46.998Z,92.50
2019-02-17T12:21:18.100Z,92.50
2019-02-17T12:24:05.486Z,92.50
2019-02-17T12:26:36.569Z,92.50
2019-02-17T12:29:07.643Z,92.40
2019-02-17T12:31:37.515Z,92.60
2019-02-17T12:34:07.084Z,92.20
2019-02-17T12:36:36.474Z,92.10
2019-02-17T12:39:08.397Z,92.40
2019-02-17T12:41:37.882Z,92.50
2019-02-17T12:44:07.355Z,92.50
2019-02-17T12:46:36.848Z,92.30
2019-02-17T12:49:06.296Z,92.30
2019-02-17T12:51:35.801Z,92.40
2019-02-17T12:54:05.277Z,92.20
2019-02-17T12:56:34.751Z,92.30
2019-02-17T12:59:04.209Z,92.30
2019-02-17T13:01:33.561Z,92.30
2019-02-17T13:04:03.045Z,92.30
2019-02-17T13:06:34.244Z,92.30
2019-02-17T13:09:05.216Z,92.30
2019-02-17T13:11:34.740Z,92.30
2019-02-17T13:14:04.155Z,92.30
2019-02-17T13:16:33.711Z,92.00
2019-02-17T13:19:03.149Z,92.10
2019-02-17T13:21:32.599Z,91.60
2019-02-17T13:24:02.094Z,92.00
2019-02-17T13:26:31.658Z,92.00
2019-02-17T13:29:01.051Z,92.00
2019-02-17T13:31:30.514Z,91.90
2019-02-17T13:34:00.103Z,92.00
2019-02-17T13:36:29.569Z,92.10
2019-02-17T13:38:59.101Z,92.00
2019-02-17T13:41:28.475Z,92.10
2019-02-17T13:43:58.074Z,92.00
2019-02-17T13:46:27.513Z,91.80
2019-02-17T13:48:57.071Z,91.90
2019-02-17T13:51:26.546Z,91.80
2019-02-17T13:53:56.187Z,91.50
2019-02-17T13:56:25.659Z,91.10
2019-02-17T13:58:55.027Z,91.00
2019-02-17T14:01:24.497Z,91.00
2019-02-17T14:03:54.025Z,91.10
2019-02-17T14:06:23.563Z,91.20
2019-02-17T14:08:53.039Z,90.90
2019-02-17T14:11:22.538Z,90.80
2019-02-17T14:13:51.921Z,90.90
2019-02-17T14:16:21.434Z,90.40
2019-02-17T14:18:50.939Z,90.70
2019-02-17T14:21:20.444Z,90.50
2019-02-17T14:23:49.782Z,90.60
2019-02-17T14:26:19.213Z,90.50
2019-02-17T14:28:48.666Z,90.30
2019-02-17T14:31:19.793Z,90.40
2019-02-17T14:33:58.402Z,89.20
2019-02-17T14:36:29.179Z,89.20
2019-02-17T14:38:59.467Z,90.00
2019-02-17T14:41:28.875Z,89.90
2019-02-17T14:43:58.293Z,89.70
2019-02-17T14:46:27.707Z,89.70
2019-02-17T14:48:57.274Z,89.90
2019-02-17T14:51:26.809Z,89.50
2019-02-17T14:53:56.259Z,89.50
2019-02-17T14:56:25.659Z,90.00
2019-02-17T14:58:55.158Z,89.80
2019-02-17T15:01:24.632Z,89.70
2019-02-17T15:03:54.153Z,88.40
2019-02-17T15:06:23.651Z,89.20
2019-02-17T15:08:53.119Z,89.50
2019-02-17T15:11:22.533Z,89.70
2019-02-17T15:13:51.965Z,89.50
2019-02-17T15:16:21.343Z,89.60
2019-02-17T15:18:50.809Z,89.50
2019-02-17T15:21:20.207Z,89.30
2019-02-17T15:23:49.591Z,89.30
2019-02-17T15:26:19.011Z,89.40
2019-02-17T15:28:50.958Z,89.40
2019-02-17T15:31:19.557Z,89.20
2019-02-17T15:33:49.097Z,89.60
2019-02-17T15:36:18.568Z,89.60
2019-02-17T15:38:48.025Z,89.70
2019-02-17T15:41:17.445Z,89.80
2019-02-17T15:43:46.929Z,89.50
2019-02-17T15:46:16.389Z,89.30
2019-02-17T15:48:45.875Z,89.10
2019-02-17T15:51:15.243Z,89.30
2019-02-17T15:53:44.673Z,89.40
2019-02-17T15:56:14.143Z,89.60
2019-02-17T15:58:45.070Z,89.50
2019-02-17T16:01:14.559Z,89.50
2019-02-17T16:03:44.987Z,89.20
2019-02-17T16:06:14.629Z,89.50
2019-02-17T16:08:44.145Z,89.60
2019-02-17T16:11:13.690Z,89.40
2019-02-17T16:13:43.111Z,89.60
2019-02-17T16:16:12.513Z,89.60
2019-02-17T16:18:41.939Z,89.60
2019-02-17T16:21:11.359Z,89.70
2019-02-17T16:23:40.783Z,89.70
2019-02-17T16:26:10.209Z,89.70
2019-02-17T16:28:39.595Z,89.70
2019-02-17T16:31:08.994Z,89.70
2019-02-17T16:33:38.497Z,89.50
2019-02-17T16:36:08.061Z,89.70
2019-02-17T16:38:37.496Z,89.50
2019-02-17T16:41:06.919Z,89.20
2019-02-17T16:43:36.272Z,89.40
2019-02-17T16:46:05.697Z,89.10
2019-02-17T16:48:35.091Z,89.10
2019-02-17T16:51:04.592Z,88.80
2019-02-17T16:53:34.031Z,88.90
2019-02-17T16:56:03.663Z,88.80
2019-02-17T16:58:33.148Z,88.50
2019-02-17T17:01:02.648Z,88.50
2019-02-17T17:03:32.106Z,88.40
2019-02-17T17:06:01.724Z,88.10
2019-02-17T17:08:31.591Z,88.20
2019-02-17T17:11:00.998Z,88.10
2019-02-17T17:13:30.422Z,88.00
2019-02-17T17:15:59.859Z,87.80
2019-02-17T17:18:29.309Z,87.60
2019-02-17T17:20:58.766Z,87.50
2019-02-17T17:23:28.181Z,87.40
2019-02-17T17:25:57.635Z,87.10
2019-02-17T17:28:27.144Z,87.10
2019-02-17T17:30:56.523Z,87.00
2019-02-17T17:33:25.909Z,86.90
2019-02-17T17:35:55.322Z,87.00
2019-02-17T17:38:24.700Z,86.80
2019-02-17T17:40:54.259Z,86.60
2019-02-17T17:43:23.583Z,86.40
2019-02-17T17:45:53.679Z,86.30
2019-02-17T17:48:23.119Z,86.30
2019-02-17T17:50:52.556Z,86.30
2019-02-17T17:53:22.053Z,86.20
2019-02-17T17:55:51.451Z,86.00
2019-02-17T17:58:20.931Z,85.90
2019-02-17T18:00:50.391Z,86.10
2019-02-17T18:03:20.152Z,85.80
2019-02-17T18:05:49.757Z,85.80
2019-02-17T18:08:19.210Z,85.70
2019-02-17T18:10:48.627Z,85.50
2019-02-17T18:13:18.076Z,85.60
2019-02-17T18:15:47.502Z,85.30
2019-02-17T18:18:16.924Z,85.30
2019-02-17T18:20:46.338Z,85.10
2019-02-17T18:23:15.847Z,85.20
2019-02-17T18:25:45.548Z,85.20
2019-02-17T18:28:15.086Z,85.20
2019-02-17T18:30:44.509Z,84.90
2019-02-17T18:33:14.036Z,84.80
2019-02-17T18:35:45.033Z,84.70
2019-02-17T18:38:14.558Z,84.60
2019-02-17T18:40:46.176Z,84.50
2019-02-17T18:43:15.166Z,84.30
2019-02-17T18:45:44.582Z,84.30
2019-02-17T18:48:14.180Z,84.10
2019-02-17T18:50:43.630Z,84.10
2019-02-17T18:53:15.308Z,84.00
2019-02-17T18:55:44.308Z,83.90
2019-02-17T18:58:13.756Z,83.70
2019-02-17T19:00:43.176Z,83.80
2019-02-17T19:03:12.616Z,83.80
2019-02-17T19:05:42.050Z,83.80
2019-02-17T19:08:11.470Z,83.70
2019-02-17T19:10:42.661Z,83.70
2019-02-17T19:13:12.083Z,83.60
2019-02-17T19:15:41.480Z,83.80
2019-02-17T19:18:10.943Z,83.70
2019-02-17T19:20:41.222Z,83.60
2019-02-17T19:23:10.624Z,83.40
2019-02-17T19:25:40.076Z,83.40
2019-02-17T19:28:09.522Z,83.30
2019-02-17T19:30:38.874Z,83.20
2019-02-17T19:33:08.351Z,83.10
2019-02-17T19:35:41.830Z,83.10
2019-02-17T19:38:09.076Z,83.00
2019-02-17T19:40:38.528Z,82.80
2019-02-17T19:43:07.998Z,82.80
2019-02-17T19:45:37.411Z,82.70
2019-02-17T19:48:06.815Z,82.60
2019-02-17T19:50:36.176Z,82.60
2019-02-17T19:53:05.657Z,82.60
2019-02-17T19:55:35.102Z,82.50
2019-02-17T19:58:04.504Z,82.30
2019-02-17T20:00:33.953Z,82.30
2019-02-17T20:03:05.081Z,82.20
2019-02-17T20:05:36.201Z,82.10
2019-02-17T20:08:05.686Z,82.10
2019-02-17T20:10:35.120Z,82.00
2019-02-17T20:13:04.532Z,82.00
2019-02-17T20:15:35.000Z,81.90
2019-02-17T20:18:04.566Z,82.00
2019-02-17T20:20:33.987Z,82.10
2019-02-17T20:23:03.395Z,82.10
2019-02-17T20:25:32.856Z,82.00
2019-02-17T20:28:02.376Z,81.90
2019-02-17T20:30:31.866Z,82.00
2019-02-17T20:33:01.347Z,82.00
2019-02-17T20:35:30.828Z,81.90
2019-02-17T20:38:00.264Z,82.90
2019-02-17T20:40:29.688Z,82.90
2019-02-17T20:42:59.106Z,82.90
2019-02-17T20:45:30.146Z,82.80
2019-02-17T20:47:59.699Z,82.70
2019-02-17T20:50:29.132Z,82.60
2019-02-17T20:52:58.622Z,82.60
2019-02-17T20:55:28.032Z,82.60
2019-02-17T20:57:57.589Z,82.50
2019-02-17T21:00:28.370Z,82.60
2019-02-17T21:02:57.748Z,82.50
2019-02-17T21:05:27.211Z,82.60
2019-02-17T21:07:56.632Z,82.50
2019-02-17T21:10:26.098Z,82.40
2019-02-17T21:12:55.568Z,82.30
2019-02-17T21:15:24.960Z,82.30
2019-02-17T21:17:54.396Z,82.30
2019-02-17T21:20:23.892Z,82.20
2019-02-17T21:22:53.408Z,82.20
2019-02-17T21:25:22.826Z,82.10
2019-02-17T21:27:52.304Z,82.10
2019-02-17T21:30:21.855Z,82.10
2019-02-17T21:32:51.286Z,82.00
2019-02-17T21:35:20.664Z,82.00
2019-02-17T21:37:50.138Z,82.00
2019-02-17T21:40:19.769Z,82.00
2019-02-17T21:42:49.148Z,82.00
2019-02-17T21:45:18.626Z,81.90
2019-02-17T21:47:48.133Z,82.00
2019-02-17T21:50:17.526Z,81.90
2019-02-17T21:52:46.937Z,81.90
2019-02-17T21:55:16.635Z,81.90
2019-02-17T21:57:46.084Z,81.80
2019-02-17T22:00:19.886Z,81.80
2019-02-17T22:02:49.482Z,81.70
2019-02-17T22:05:19.499Z,81.70
2019-02-17T22:07:48.917Z,81.60
2019-02-17T22:10:20.383Z,81.60
2019-02-17T22:12:51.229Z,81.60
2019-02-17T22:15:22.463Z,81.50
2019-02-17T22:17:52.174Z,81.50
2019-02-17T22:20:21.674Z,81.60
2019-02-17T22:22:51.150Z,81.50
2019-02-17T22:25:20.624Z,81.60
2019-02-17T22:27:51.261Z,81.60
2019-02-17T22:30:20.754Z,81.50
2019-02-17T22:32:50.130Z,81.50
2019-02-17T22:35:19.601Z,81.40
2019-02-17T22:37:48.953Z,81.40
2019-02-17T22:40:18.342Z,81.40
2019-02-17T22:42:47.822Z,81.40
2019-02-17T22:45:17.286Z,81.30
2019-02-17T22:47:46.662Z,81.30
2019-02-17T22:50:16.353Z,81.20
2019-02-17T22:52:46.098Z,81.20
2019-02-17T22:55:15.561Z,81.20
2019-02-17T22:57:44.986Z,81.90
2019-02-17T23:00:30.337Z,81.10
2019-02-17T23:02:59.869Z,81.10
2019-02-17T23:05:29.906Z,81.00
2019-02-17T23:07:59.303Z,81.00
2019-02-17T23:10:28.896Z,81.00
2019-02-17T23:12:58.275Z,81.00
2019-02-17T23:15:27.719Z,81.00
2019-02-17T23:17:57.212Z,81.00
2019-02-17T23:20:26.709Z,80.80
2019-02-17T23:22:56.163Z,80.80
2019-02-17T23:25:25.703Z,80.80
2019-02-17T23:27:55.178Z,80.80
2019-02-17T23:30:25.475Z,81.40
2019-02-17T23:32:54.954Z,80.70
2019-02-17T23:35:24.467Z,80.70
2019-02-17T23:37:55.678Z,80.60
2019-02-17T23:40:25.211Z,81.30
2019-02-17T23:42:54.614Z,80.60
2019-02-17T23:45:24.077Z,80.50
2019-02-17T23:47:53.491Z,80.60
2019-02-17T23:50:22.949Z,80.50
2019-02-17T23:52:54.520Z,81.10
2019-02-17T23:55:23.535Z,80.50
2019-02-17T23:57:52.939Z,80.50
